Meath Environmental Platform

Observations

Time Sensor AQI SAQ Temp °C Hum % Pres Pa CO μg/m³ H₂S μg/m³ NO μg/m³ NO₂ μg/m³ O₃ μg/m³ SO₂ μg/m³ CO₂e PPM VOC PPM PM1 μg/m³ PM2.5 μg/m³ PM4 μg/m³ PM10 μg/m³ TPS µm
Tuesday 11 August 2026
10:56 Trim Patrick St 1 31.2 34 69,252 0 0 0.74 3.86 51.64 14.05 2.86 8.2 9.02
10:55 Trim Market St 1 37.1 27 66,704 0 0 0.1 13.29 78.25 0 0 2.91 3.2
10:55 Trim Patrick St 1 31.1 35 69,244 0 0 0.75 9.74 79.3 12.67 2.86 8.94 9.84
10:54 Trim Market St 1 37 27 66,700 0 0 0.13 13.93 57.89 0 0.71 3.45 3.8
10:54 Trim Patrick St 1 31 39 69,258 0 0 0.74 6.03 34.15 13.02 2.86 8.71 9.58
10:53 Trim Market St 1 36.9 27 66,700 0 0 0.19 12.29 73.65 0 0 2.89 3.18
10:53 Trim Patrick St 1 31 38 69,250 0 0 0.75 9.15 61.29 12.98 2 7.2 7.92
10:52 Trim Market St 1 36.8 27 66,700 0 0 0.22 12.19 81.32 0 1.43 4.52 4.97
10:52 Trim Patrick St 1 30.8 37 69,238 0 0 0.77 7.67 28.44 12.7 3.71 8.79 9.67
10:51 Trim Patrick St 1 30.8 37 69,224 0 0 0.77 9.44 64.16 12.11 2 7.23 7.96
10:50 Trim Patrick St 1 30.7 38 69,204 0 0 0.78 9.7 74.67 13.52 2 7.18 7.89
10:49 Trim Patrick St 1 30.7 39 69,206 0 0 0.77 7.6 62.03 13.23 2 7.92 8.71
10:48 Trim Patrick St 1 30.6 38 69,216 0 0 0.8 9.43 87.56 12.94 2.86 8.77 9.65
10:47 Trim Market St 1 36.7 27 66,682 0 0 0.22 13.26 71.37 0 0 2.88 3.17
10:47 Trim Patrick St 1 30.6 36 69,252 0 0 0.81 9.3 32.38 10.21 2 7.3 8.03
10:46 Trim Market St 1 36.7 27 66,675 0 0 0.21 13.23 77.75 0 0 3.43 3.77
10:46 Trim Patrick St 1 30.6 41 69,248 0 0 0.77 6.76 18.32 12.83 2.86 8.53 9.39
10:45 Trim Market St 1 36.7 27 66,669 0 0 0.19 12.6 70.48 0 0.71 3.97 4.37
10:45 Trim Patrick St 1 30.5 39 69,236 0 0 0.79 12.03 71.05 12.46 2.86 7.87 8.66
10:44 Trim Patrick St 1 30.4 41 69,216 0 0 0.8 8.39 46.12 12.88 2.86 8.57 9.43